sensor_id;sensor_type;location;lat;lon;timestamp;P1;durP1;ratioP1;P2;durP2;ratioP2
73684;SDS011;61985;51.070;14.064;2023-09-30T00:01:46;13.35;;;4.82;;
73684;SDS011;61985;51.070;14.064;2023-09-30T00:04:11;13.55;;;5.05;;
73684;SDS011;61985;51.070;14.064;2023-09-30T00:06:37;12.05;;;4.78;;
73684;SDS011;61985;51.070;14.064;2023-09-30T00:09:02;14.48;;;5.13;;
73684;SDS011;61985;51.070;14.064;2023-09-30T00:11:28;13.30;;;5.30;;
73684;SDS011;61985;51.070;14.064;2023-09-30T00:13:53;14.38;;;4.68;;
73684;SDS011;61985;51.070;14.064;2023-09-30T00:16:19;14.93;;;5.20;;
73684;SDS011;61985;51.070;14.064;2023-09-30T00:18:44;12.02;;;4.70;;
73684;SDS011;61985;51.070;14.064;2023-09-30T00:21:11;15.73;;;4.72;;
73684;SDS011;61985;51.070;14.064;2023-09-30T00:23:37;15.32;;;4.40;;
73684;SDS011;61985;51.070;14.064;2023-09-30T00:26:02;12.32;;;4.55;;
73684;SDS011;61985;51.070;14.064;2023-09-30T00:28:28;12.65;;;4.68;;
73684;SDS011;61985;51.070;14.064;2023-09-30T00:30:53;10.02;;;4.13;;
73684;SDS011;61985;51.070;14.064;2023-09-30T00:33:19;12.02;;;4.45;;
73684;SDS011;61985;51.070;14.064;2023-09-30T00:35:44;12.38;;;4.40;;
73684;SDS011;61985;51.070;14.064;2023-09-30T00:38:11;11.63;;;4.80;;
73684;SDS011;61985;51.070;14.064;2023-09-30T00:40:36;14.18;;;4.40;;
73684;SDS011;61985;51.070;14.064;2023-09-30T00:43:02;11.73;;;4.68;;
73684;SDS011;61985;51.070;14.064;2023-09-30T00:45:27;12.18;;;4.25;;
73684;SDS011;61985;51.070;14.064;2023-09-30T00:47:53;10.15;;;4.25;;
73684;SDS011;61985;51.070;14.064;2023-09-30T00:50:19;9.15;;;3.60;;
73684;SDS011;61985;51.070;14.064;2023-09-30T00:52:46;10.52;;;3.70;;
73684;SDS011;61985;51.070;14.064;2023-09-30T00:55:13;9.65;;;3.90;;
73684;SDS011;61985;51.070;14.064;2023-09-30T00:57:40;10.45;;;4.10;;
73684;SDS011;61985;51.070;14.064;2023-09-30T01:00:06;11.55;;;3.85;;
73684;SDS011;61985;51.070;14.064;2023-09-30T01:02:36;10.63;;;3.92;;
73684;SDS011;61985;51.070;14.064;2023-09-30T01:05:04;10.05;;;3.53;;
73684;SDS011;61985;51.070;14.064;2023-09-30T01:07:29;12.50;;;3.80;;
73684;SDS011;61985;51.070;14.064;2023-09-30T01:09:55;8.32;;;3.53;;
73684;SDS011;61985;51.070;14.064;2023-09-30T01:12:21;6.60;;;3.17;;
73684;SDS011;61985;51.070;14.064;2023-09-30T01:14:46;6.30;;;2.42;;
73684;SDS011;61985;51.070;14.064;2023-09-30T01:17:11;6.15;;;2.63;;
73684;SDS011;61985;51.070;14.064;2023-09-30T01:19:39;4.05;;;2.10;;
73684;SDS011;61985;51.070;14.064;2023-09-30T01:22:05;5.18;;;1.90;;
73684;SDS011;61985;51.070;14.064;2023-09-30T01:24:41;6.20;;;2.20;;
73684;SDS011;61985;51.070;14.064;2023-09-30T01:29:32;7.18;;;2.47;;
73684;SDS011;61985;51.070;14.064;2023-09-30T01:31:58;2.58;;;1.10;;
73684;SDS011;61985;51.070;14.064;2023-09-30T01:34:23;2.95;;;1.00;;
73684;SDS011;61985;51.070;14.064;2023-09-30T01:36:48;3.53;;;0.90;;
73684;SDS011;61985;51.070;14.064;2023-09-30T01:39:14;2.55;;;0.98;;
73684;SDS011;61985;51.070;14.064;2023-09-30T01:41:39;1.40;;;0.90;;
73684;SDS011;61985;51.070;14.064;2023-09-30T01:44:05;1.75;;;1.02;;
73684;SDS011;61985;51.070;14.064;2023-09-30T01:46:31;3.03;;;0.90;;
73684;SDS011;61985;51.070;14.064;2023-09-30T01:48:57;2.50;;;0.95;;
73684;SDS011;61985;51.070;14.064;2023-09-30T01:51:22;2.40;;;0.90;;
73684;SDS011;61985;51.070;14.064;2023-09-30T01:53:48;2.03;;;1.10;;
73684;SDS011;61985;51.070;14.064;2023-09-30T01:56:14;1.50;;;0.80;;
73684;SDS011;61985;51.070;14.064;2023-09-30T01:58:39;2.63;;;0.70;;
73684;SDS011;61985;51.070;14.064;2023-09-30T02:01:04;2.17;;;1.00;;
73684;SDS011;61985;51.070;14.064;2023-09-30T02:03:30;2.83;;;0.90;;
73684;SDS011;61985;51.070;14.064;2023-09-30T02:05:56;2.65;;;1.00;;
73684;SDS011;61985;51.070;14.064;2023-09-30T02:08:23;2.45;;;0.90;;
73684;SDS011;61985;51.070;14.064;2023-09-30T02:10:48;4.00;;;1.17;;
73684;SDS011;61985;51.070;14.064;2023-09-30T02:13:13;3.70;;;1.23;;
73684;SDS011;61985;51.070;14.064;2023-09-30T02:15:42;3.67;;;1.00;;
73684;SDS011;61985;51.070;14.064;2023-09-30T02:18:08;3.55;;;1.00;;
73684;SDS011;61985;51.070;14.064;2023-09-30T02:20:34;3.08;;;1.10;;
73684;SDS011;61985;51.070;14.064;2023-09-30T02:23:04;4.43;;;1.35;;
73684;SDS011;61985;51.070;14.064;2023-09-30T02:25:39;4.90;;;1.33;;
73684;SDS011;61985;51.070;14.064;2023-09-30T02:28:05;3.30;;;1.30;;
73684;SDS011;61985;51.070;14.064;2023-09-30T02:30:31;4.57;;;1.20;;
73684;SDS011;61985;51.070;14.064;2023-09-30T02:32:57;5.68;;;1.92;;
73684;SDS011;61985;51.070;14.064;2023-09-30T02:35:22;4.43;;;1.20;;
73684;SDS011;61985;51.070;14.064;2023-09-30T02:37:48;6.57;;;1.52;;
73684;SDS011;61985;51.070;14.064;2023-09-30T02:40:16;4.28;;;1.42;;
73684;SDS011;61985;51.070;14.064;2023-09-30T02:42:42;3.78;;;1.40;;
73684;SDS011;61985;51.070;14.064;2023-09-30T02:45:09;7.55;;;1.95;;
73684;SDS011;61985;51.070;14.064;2023-09-30T02:47:35;2.72;;;1.35;;
73684;SDS011;61985;51.070;14.064;2023-09-30T02:50:01;3.50;;;2.13;;
73684;SDS011;61985;51.070;14.064;2023-09-30T02:52:29;2.92;;;1.30;;
73684;SDS011;61985;51.070;14.064;2023-09-30T02:54:55;4.03;;;1.58;;
73684;SDS011;61985;51.070;14.064;2023-09-30T02:57:22;6.50;;;1.55;;
73684;SDS011;61985;51.070;14.064;2023-09-30T02:59:48;3.15;;;1.45;;
73684;SDS011;61985;51.070;14.064;2023-09-30T03:02:14;4.22;;;1.70;;
73684;SDS011;61985;51.070;14.064;2023-09-30T03:04:40;6.60;;;1.95;;
73684;SDS011;61985;51.070;14.064;2023-09-30T03:07:06;5.75;;;1.45;;
73684;SDS011;61985;51.070;14.064;2023-09-30T03:09:32;5.32;;;1.70;;
73684;SDS011;61985;51.070;14.064;2023-09-30T03:11:57;5.10;;;1.55;;
73684;SDS011;61985;51.070;14.064;2023-09-30T03:14:24;5.28;;;1.83;;
73684;SDS011;61985;51.070;14.064;2023-09-30T03:16:50;3.38;;;1.70;;
73684;SDS011;61985;51.070;14.064;2023-09-30T03:19:15;5.72;;;1.60;;
73684;SDS011;61985;51.070;14.064;2023-09-30T03:21:41;4.43;;;1.90;;
73684;SDS011;61985;51.070;14.064;2023-09-30T03:24:08;7.20;;;1.83;;
73684;SDS011;61985;51.070;14.064;2023-09-30T03:26:33;6.55;;;2.28;;
73684;SDS011;61985;51.070;14.064;2023-09-30T03:28:59;4.93;;;1.70;;
73684;SDS011;61985;51.070;14.064;2023-09-30T03:31:25;5.28;;;2.55;;
73684;SDS011;61985;51.070;14.064;2023-09-30T03:33:50;7.05;;;2.00;;
73684;SDS011;61985;51.070;14.064;2023-09-30T03:36:19;4.95;;;1.67;;
73684;SDS011;61985;51.070;14.064;2023-09-30T03:38:45;7.22;;;2.03;;
73684;SDS011;61985;51.070;14.064;2023-09-30T03:41:11;4.15;;;1.90;;
73684;SDS011;61985;51.070;14.064;2023-09-30T03:43:38;7.53;;;2.03;;
73684;SDS011;61985;51.070;14.064;2023-09-30T03:46:06;4.43;;;1.90;;
73684;SDS011;61985;51.070;14.064;2023-09-30T03:48:32;5.10;;;2.10;;
73684;SDS011;61985;51.070;14.064;2023-09-30T03:51:07;8.93;;;2.17;;
73684;SDS011;61985;51.070;14.064;2023-09-30T03:53:39;6.90;;;1.80;;
73684;SDS011;61985;51.070;14.064;2023-09-30T03:56:05;6.35;;;2.00;;
73684;SDS011;61985;51.070;14.064;2023-09-30T03:58:31;7.88;;;1.92;;
73684;SDS011;61985;51.070;14.064;2023-09-30T04:00:57;7.85;;;2.17;;
73684;SDS011;61985;51.070;14.064;2023-09-30T04:03:23;8.00;;;2.28;;
73684;SDS011;61985;51.070;14.064;2023-09-30T04:05:48;7.07;;;2.00;;
73684;SDS011;61985;51.070;14.064;2023-09-30T04:08:15;10.90;;;2.15;;
73684;SDS011;61985;51.070;14.064;2023-09-30T04:10:42;5.93;;;1.63;;
73684;SDS011;61985;51.070;14.064;2023-09-30T04:13:09;7.97;;;2.08;;
73684;SDS011;61985;51.070;14.064;2023-09-30T04:15:36;6.30;;;1.80;;
73684;SDS011;61985;51.070;14.064;2023-09-30T04:18:02;7.60;;;2.00;;
73684;SDS011;61985;51.070;14.064;2023-09-30T04:20:28;7.85;;;1.95;;
73684;SDS011;61985;51.070;14.064;2023-09-30T04:22:54;9.65;;;2.00;;
73684;SDS011;61985;51.070;14.064;2023-09-30T04:25:22;5.93;;;1.75;;
73684;SDS011;61985;51.070;14.064;2023-09-30T04:27:49;7.15;;;2.00;;
73684;SDS011;61985;51.070;14.064;2023-09-30T04:30:15;6.38;;;1.90;;
73684;SDS011;61985;51.070;14.064;2023-09-30T04:32:42;6.22;;;1.85;;
73684;SDS011;61985;51.070;14.064;2023-09-30T04:35:08;7.03;;;2.05;;
73684;SDS011;61985;51.070;14.064;2023-09-30T04:37:34;8.75;;;2.00;;
73684;SDS011;61985;51.070;14.064;2023-09-30T04:40:01;9.05;;;2.35;;
73684;SDS011;61985;51.070;14.064;2023-09-30T04:42:33;5.60;;;1.75;;
73684;SDS011;61985;51.070;14.064;2023-09-30T04:45:01;8.50;;;2.40;;
73684;SDS011;61985;51.070;14.064;2023-09-30T04:47:28;8.50;;;2.22;;
73684;SDS011;61985;51.070;14.064;2023-09-30T04:49:53;7.82;;;1.70;;
73684;SDS011;61985;51.070;14.064;2023-09-30T04:52:18;11.63;;;2.20;;
73684;SDS011;61985;51.070;14.064;2023-09-30T04:54:45;12.90;;;2.63;;
73684;SDS011;61985;51.070;14.064;2023-09-30T04:57:11;11.82;;;2.08;;
73684;SDS011;61985;51.070;14.064;2023-09-30T04:59:39;10.15;;;2.53;;
73684;SDS011;61985;51.070;14.064;2023-09-30T05:02:04;9.52;;;2.30;;
73684;SDS011;61985;51.070;14.064;2023-09-30T05:04:30;10.00;;;2.00;;
73684;SDS011;61985;51.070;14.064;2023-09-30T05:06:55;11.77;;;2.40;;
73684;SDS011;61985;51.070;14.064;2023-09-30T05:09:21;9.07;;;2.05;;
73684;SDS011;61985;51.070;14.064;2023-09-30T05:11:46;7.85;;;2.20;;
73684;SDS011;61985;51.070;14.064;2023-09-30T05:14:11;11.70;;;2.30;;
73684;SDS011;61985;51.070;14.064;2023-09-30T05:16:38;9.35;;;2.30;;
73684;SDS011;61985;51.070;14.064;2023-09-30T05:19:08;10.40;;;2.33;;
73684;SDS011;61985;51.070;14.064;2023-09-30T05:21:33;7.05;;;1.92;;
73684;SDS011;61985;51.070;14.064;2023-09-30T05:24:01;11.15;;;2.53;;
73684;SDS011;61985;51.070;14.064;2023-09-30T05:26:27;5.88;;;1.95;;
73684;SDS011;61985;51.070;14.064;2023-09-30T05:28:52;8.93;;;2.03;;
73684;SDS011;61985;51.070;14.064;2023-09-30T05:31:18;7.80;;;2.53;;
73684;SDS011;61985;51.070;14.064;2023-09-30T05:33:43;10.23;;;2.47;;
73684;SDS011;61985;51.070;14.064;2023-09-30T05:36:08;14.70;;;3.15;;
73684;SDS011;61985;51.070;14.064;2023-09-30T05:38:34;9.80;;;2.13;;
73684;SDS011;61985;51.070;14.064;2023-09-30T05:40:59;11.40;;;2.53;;
73684;SDS011;61985;51.070;14.064;2023-09-30T05:43:26;9.48;;;2.05;;
73684;SDS011;61985;51.070;14.064;2023-09-30T05:45:52;12.45;;;2.45;;
73684;SDS011;61985;51.070;14.064;2023-09-30T05:48:20;8.43;;;2.15;;
73684;SDS011;61985;51.070;14.064;2023-09-30T05:50:46;7.43;;;2.08;;
73684;SDS011;61985;51.070;14.064;2023-09-30T05:53:12;12.63;;;2.35;;
73684;SDS011;61985;51.070;14.064;2023-09-30T05:55:38;12.68;;;2.28;;
73684;SDS011;61985;51.070;14.064;2023-09-30T05:58:06;10.07;;;2.42;;
73684;SDS011;61985;51.070;14.064;2023-09-30T06:00:32;8.68;;;2.53;;
73684;SDS011;61985;51.070;14.064;2023-09-30T06:03:00;11.73;;;2.28;;
73684;SDS011;61985;51.070;14.064;2023-09-30T06:05:26;8.52;;;2.10;;
73684;SDS011;61985;51.070;14.064;2023-09-30T06:07:54;11.55;;;2.83;;
73684;SDS011;61985;51.070;14.064;2023-09-30T06:10:20;9.32;;;2.50;;
73684;SDS011;61985;51.070;14.064;2023-09-30T06:12:46;11.32;;;2.28;;
73684;SDS011;61985;51.070;14.064;2023-09-30T06:15:13;13.63;;;2.92;;
73684;SDS011;61985;51.070;14.064;2023-09-30T06:17:40;8.98;;;2.30;;
73684;SDS011;61985;51.070;14.064;2023-09-30T06:20:06;9.93;;;2.28;;
73684;SDS011;61985;51.070;14.064;2023-09-30T06:22:34;14.20;;;2.30;;
73684;SDS011;61985;51.070;14.064;2023-09-30T06:25:12;9.75;;;2.70;;
73684;SDS011;61985;51.070;14.064;2023-09-30T06:32:51;8.02;;;2.55;;
73684;SDS011;61985;51.070;14.064;2023-09-30T06:35:18;9.02;;;2.80;;
73684;SDS011;61985;51.070;14.064;2023-09-30T07:26:49;10.18;;;2.72;;
73684;SDS011;61985;51.070;14.064;2023-09-30T07:29:14;9.80;;;2.38;;
73684;SDS011;61985;51.070;14.064;2023-09-30T07:31:40;10.32;;;2.72;;
73684;SDS011;61985;51.070;14.064;2023-09-30T07:34:05;12.15;;;2.67;;
73684;SDS011;61985;51.070;14.064;2023-09-30T07:36:31;12.63;;;2.88;;
73684;SDS011;61985;51.070;14.064;2023-09-30T07:38:56;10.15;;;3.03;;
73684;SDS011;61985;51.070;14.064;2023-09-30T07:41:22;13.82;;;3.08;;
73684;SDS011;61985;51.070;14.064;2023-09-30T07:43:47;12.63;;;3.28;;
73684;SDS011;61985;51.070;14.064;2023-09-30T07:46:13;16.08;;;2.97;;
73684;SDS011;61985;51.070;14.064;2023-09-30T07:48:40;17.60;;;3.20;;
73684;SDS011;61985;51.070;14.064;2023-09-30T07:51:06;13.27;;;3.20;;
73684;SDS011;61985;51.070;14.064;2023-09-30T07:53:34;9.70;;;2.30;;
73684;SDS011;61985;51.070;14.064;2023-09-30T07:56:00;9.52;;;2.60;;
73684;SDS011;61985;51.070;14.064;2023-09-30T07:58:25;13.90;;;2.60;;
73684;SDS011;61985;51.070;14.064;2023-09-30T08:00:51;13.63;;;2.97;;
73684;SDS011;61985;51.070;14.064;2023-09-30T08:03:17;14.55;;;3.85;;
73684;SDS011;61985;51.070;14.064;2023-09-30T08:05:43;12.63;;;2.65;;
73684;SDS011;61985;51.070;14.064;2023-09-30T08:08:08;21.23;;;3.13;;
73684;SDS011;61985;51.070;14.064;2023-09-30T08:10:33;12.70;;;2.50;;
73684;SDS011;61985;51.070;14.064;2023-09-30T08:12:59;7.97;;;2.45;;
73684;SDS011;61985;51.070;14.064;2023-09-30T08:15:27;16.85;;;2.58;;
73684;SDS011;61985;51.070;14.064;2023-09-30T08:17:53;49.42;;;22.38;;
73684;SDS011;61985;51.070;14.064;2023-09-30T08:20:20;11.93;;;4.13;;
73684;SDS011;61985;51.070;14.064;2023-09-30T08:22:45;10.70;;;2.63;;
73684;SDS011;61985;51.070;14.064;2023-09-30T08:25:12;9.55;;;2.92;;
73684;SDS011;61985;51.070;14.064;2023-09-30T08:27:38;11.27;;;2.30;;
73684;SDS011;61985;51.070;14.064;2023-09-30T08:30:04;13.63;;;2.67;;
73684;SDS011;61985;51.070;14.064;2023-09-30T09:50:04;12.13;;;2.30;;
73684;SDS011;61985;51.070;14.064;2023-09-30T09:52:31;7.60;;;1.77;;
73684;SDS011;61985;51.070;14.064;2023-09-30T09:54:59;8.45;;;2.20;;
73684;SDS011;61985;51.070;14.064;2023-09-30T09:57:24;8.57;;;2.15;;
73684;SDS011;61985;51.070;14.064;2023-09-30T09:59:51;9.68;;;2.08;;
73684;SDS011;61985;51.070;14.064;2023-09-30T10:02:18;12.45;;;1.83;;
73684;SDS011;61985;51.070;14.064;2023-09-30T10:04:44;9.18;;;2.28;;
73684;SDS011;61985;51.070;14.064;2023-09-30T10:07:12;10.35;;;2.40;;
73684;SDS011;61985;51.070;14.064;2023-09-30T10:09:43;9.77;;;2.40;;
73684;SDS011;61985;51.070;14.064;2023-09-30T10:12:13;12.45;;;2.40;;
73684;SDS011;61985;51.070;14.064;2023-09-30T10:14:40;10.63;;;2.55;;
73684;SDS011;61985;51.070;14.064;2023-09-30T10:17:05;10.98;;;2.10;;
73684;SDS011;61985;51.070;14.064;2023-09-30T10:19:31;7.80;;;1.70;;
73684;SDS011;61985;51.070;14.064;2023-09-30T10:24:32;8.70;;;2.15;;
73684;SDS011;61985;51.070;14.064;2023-09-30T10:46:04;8.10;;;1.88;;
73684;SDS011;61985;51.070;14.064;2023-09-30T10:48:51;11.60;;;2.42;;
73684;SDS011;61985;51.070;14.064;2023-09-30T10:51:20;5.82;;;1.55;;
73684;SDS011;61985;51.070;14.064;2023-09-30T10:53:47;10.57;;;2.05;;
73684;SDS011;61985;51.070;14.064;2023-09-30T10:56:26;11.48;;;2.25;;
73684;SDS011;61985;51.070;14.064;2023-09-30T10:59:06;7.70;;;1.70;;
73684;SDS011;61985;51.070;14.064;2023-09-30T11:04:21;8.60;;;1.80;;
73684;SDS011;61985;51.070;14.064;2023-09-30T14:36:06;5.80;;;1.50;;
73684;SDS011;61985;51.070;14.064;2023-09-30T14:38:33;4.78;;;1.60;;
73684;SDS011;61985;51.070;14.064;2023-09-30T14:40:58;5.32;;;1.58;;
73684;SDS011;61985;51.070;14.064;2023-09-30T14:43:24;11.75;;;1.42;;
73684;SDS011;61985;51.070;14.064;2023-09-30T14:45:50;6.13;;;1.60;;
73684;SDS011;61985;51.070;14.064;2023-09-30T14:48:15;9.85;;;1.80;;
73684;SDS011;61985;51.070;14.064;2023-09-30T14:50:50;6.70;;;1.52;;
73684;SDS011;61985;51.070;14.064;2023-09-30T14:53:18;5.10;;;1.33;;
73684;SDS011;61985;51.070;14.064;2023-09-30T15:00:26;6.05;;;1.63;;
73684;SDS011;61985;51.070;14.064;2023-09-30T15:02:52;7.97;;;1.50;;
73684;SDS011;61985;51.070;14.064;2023-09-30T15:05:19;7.03;;;1.70;;
73684;SDS011;61985;51.070;14.064;2023-09-30T15:07:45;9.88;;;2.22;;
73684;SDS011;61985;51.070;14.064;2023-09-30T15:10:10;6.63;;;1.70;;
73684;SDS011;61985;51.070;14.064;2023-09-30T15:12:39;6.90;;;1.70;;
73684;SDS011;61985;51.070;14.064;2023-09-30T15:15:07;7.55;;;1.70;;
73684;SDS011;61985;51.070;14.064;2023-09-30T15:17:34;7.25;;;1.70;;
73684;SDS011;61985;51.070;14.064;2023-09-30T15:19:59;6.68;;;2.05;;
73684;SDS011;61985;51.070;14.064;2023-09-30T15:22:25;7.25;;;1.70;;
73684;SDS011;61985;51.070;14.064;2023-09-30T15:24:51;6.35;;;1.63;;
73684;SDS011;61985;51.070;14.064;2023-09-30T15:27:20;6.28;;;1.30;;
73684;SDS011;61985;51.070;14.064;2023-09-30T15:29:47;5.63;;;1.55;;
73684;SDS011;61985;51.070;14.064;2023-09-30T15:32:13;10.30;;;1.70;;
73684;SDS011;61985;51.070;14.064;2023-09-30T15:34:38;7.50;;;1.90;;
73684;SDS011;61985;51.070;14.064;2023-09-30T15:37:05;8.95;;;1.77;;
73684;SDS011;61985;51.070;14.064;2023-09-30T15:39:38;6.35;;;1.70;;
73684;SDS011;61985;51.070;14.064;2023-09-30T15:42:05;9.98;;;1.80;;
73684;SDS011;61985;51.070;14.064;2023-09-30T15:44:33;7.07;;;1.48;;
73684;SDS011;61985;51.070;14.064;2023-09-30T15:46:59;9.25;;;1.50;;
73684;SDS011;61985;51.070;14.064;2023-09-30T15:49:25;7.90;;;1.45;;
73684;SDS011;61985;51.070;14.064;2023-09-30T15:51:50;4.60;;;1.60;;
73684;SDS011;61985;51.070;14.064;2023-09-30T15:54:15;4.90;;;1.35;;
73684;SDS011;61985;51.070;14.064;2023-09-30T15:56:41;12.23;;;1.70;;
73684;SDS011;61985;51.070;14.064;2023-09-30T15:59:07;5.78;;;1.50;;
73684;SDS011;61985;51.070;14.064;2023-09-30T16:01:33;10.32;;;1.77;;
73684;SDS011;61985;51.070;14.064;2023-09-30T16:03:59;10.02;;;1.33;;
73684;SDS011;61985;51.070;14.064;2023-09-30T16:06:25;5.72;;;1.50;;
73684;SDS011;61985;51.070;14.064;2023-09-30T16:08:50;10.63;;;1.70;;
73684;SDS011;61985;51.070;14.064;2023-09-30T16:11:16;8.90;;;1.45;;
73684;SDS011;61985;51.070;14.064;2023-09-30T16:13:42;7.53;;;2.13;;
73684;SDS011;61985;51.070;14.064;2023-09-30T16:16:08;13.27;;;1.63;;
73684;SDS011;61985;51.070;14.064;2023-09-30T16:18:35;9.63;;;1.55;;
73684;SDS011;61985;51.070;14.064;2023-09-30T16:21:00;6.70;;;1.38;;
73684;SDS011;61985;51.070;14.064;2023-09-30T16:23:26;9.93;;;1.77;;
73684;SDS011;61985;51.070;14.064;2023-09-30T16:25:51;11.50;;;1.52;;
73684;SDS011;61985;51.070;14.064;2023-09-30T16:28:16;13.63;;;3.28;;
73684;SDS011;61985;51.070;14.064;2023-09-30T16:30:42;10.38;;;1.58;;
73684;SDS011;61985;51.070;14.064;2023-09-30T16:33:09;11.40;;;1.75;;
73684;SDS011;61985;51.070;14.064;2023-09-30T16:35:34;5.05;;;1.60;;
73684;SDS011;61985;51.070;14.064;2023-09-30T16:38:00;8.63;;;1.83;;
73684;SDS011;61985;51.070;14.064;2023-09-30T16:40:25;6.53;;;1.60;;
73684;SDS011;61985;51.070;14.064;2023-09-30T16:42:51;5.70;;;1.50;;
73684;SDS011;61985;51.070;14.064;2023-09-30T16:45:17;11.35;;;1.80;;
73684;SDS011;61985;51.070;14.064;2023-09-30T16:47:42;6.13;;;1.67;;
73684;SDS011;61985;51.070;14.064;2023-09-30T16:50:07;12.02;;;1.90;;
73684;SDS011;61985;51.070;14.064;2023-09-30T16:52:33;5.43;;;1.58;;
73684;SDS011;61985;51.070;14.064;2023-09-30T16:54:59;3.65;;;1.40;;
73684;SDS011;61985;51.070;14.064;2023-09-30T16:57:24;7.53;;;1.45;;
73684;SDS011;61985;51.070;14.064;2023-09-30T16:59:53;5.50;;;1.67;;
73684;SDS011;61985;51.070;14.064;2023-09-30T17:02:20;7.93;;;1.55;;
73684;SDS011;61985;51.070;14.064;2023-09-30T17:04:45;6.93;;;1.85;;
73684;SDS011;61985;51.070;14.064;2023-09-30T17:07:11;5.82;;;1.42;;
73684;SDS011;61985;51.070;14.064;2023-09-30T17:09:37;5.18;;;1.48;;
73684;SDS011;61985;51.070;14.064;2023-09-30T17:12:02;8.82;;;1.63;;
73684;SDS011;61985;51.070;14.064;2023-09-30T17:14:28;7.68;;;1.90;;
73684;SDS011;61985;51.070;14.064;2023-09-30T17:16:54;6.15;;;1.50;;
73684;SDS011;61985;51.070;14.064;2023-09-30T17:19:20;6.60;;;1.40;;
73684;SDS011;61985;51.070;14.064;2023-09-30T17:37:14;9.35;;;2.22;;
73684;SDS011;61985;51.070;14.064;2023-09-30T17:39:42;6.88;;;2.03;;
73684;SDS011;61985;51.070;14.064;2023-09-30T17:42:10;7.00;;;1.63;;
73684;SDS011;61985;51.070;14.064;2023-09-30T17:44:35;7.05;;;1.52;;
73684;SDS011;61985;51.070;14.064;2023-09-30T17:47:01;8.65;;;2.10;;
73684;SDS011;61985;51.070;14.064;2023-09-30T17:49:26;5.85;;;1.80;;
73684;SDS011;61985;51.070;14.064;2023-09-30T17:51:51;8.15;;;2.50;;
73684;SDS011;61985;51.070;14.064;2023-09-30T17:54:17;8.75;;;2.75;;
73684;SDS011;61985;51.070;14.064;2023-09-30T17:56:42;9.77;;;2.70;;
73684;SDS011;61985;51.070;14.064;2023-09-30T17:59:08;9.82;;;3.10;;
73684;SDS011;61985;51.070;14.064;2023-09-30T18:01:34;9.05;;;3.15;;
73684;SDS011;61985;51.070;14.064;2023-09-30T18:04:01;6.68;;;3.53;;
73684;SDS011;61985;51.070;14.064;2023-09-30T18:06:26;7.53;;;2.90;;
73684;SDS011;61985;51.070;14.064;2023-09-30T18:08:52;8.05;;;3.03;;
73684;SDS011;61985;51.070;14.064;2023-09-30T18:11:17;6.82;;;2.92;;
73684;SDS011;61985;51.070;14.064;2023-09-30T18:13:43;8.35;;;3.80;;
73684;SDS011;61985;51.070;14.064;2023-09-30T18:16:09;6.68;;;2.80;;
73684;SDS011;61985;51.070;14.064;2023-09-30T18:18:35;8.43;;;3.58;;
73684;SDS011;61985;51.070;14.064;2023-09-30T18:21:01;8.23;;;3.60;;
73684;SDS011;61985;51.070;14.064;2023-09-30T18:23:27;10.82;;;4.80;;
73684;SDS011;61985;51.070;14.064;2023-09-30T18:25:52;10.27;;;4.88;;
73684;SDS011;61985;51.070;14.064;2023-09-30T18:28:18;10.48;;;4.22;;
73684;SDS011;61985;51.070;14.064;2023-09-30T18:30:44;10.00;;;4.60;;
73684;SDS011;61985;51.070;14.064;2023-09-30T18:33:10;11.30;;;4.10;;
73684;SDS011;61985;51.070;14.064;2023-09-30T18:35:39;12.70;;;4.32;;
73684;SDS011;61985;51.070;14.064;2023-09-30T18:38:06;7.78;;;3.90;;
73684;SDS011;61985;51.070;14.064;2023-09-30T18:40:32;11.88;;;4.32;;
73684;SDS011;61985;51.070;14.064;2023-09-30T18:42:59;7.88;;;3.45;;
73684;SDS011;61985;51.070;14.064;2023-09-30T18:45:24;9.48;;;4.30;;
73684;SDS011;61985;51.070;14.064;2023-09-30T18:47:50;10.10;;;4.45;;
73684;SDS011;61985;51.070;14.064;2023-09-30T18:50:16;11.32;;;4.53;;
73684;SDS011;61985;51.070;14.064;2023-09-30T18:52:42;9.35;;;4.85;;
73684;SDS011;61985;51.070;14.064;2023-09-30T18:55:07;12.75;;;5.13;;
73684;SDS011;61985;51.070;14.064;2023-09-30T18:57:33;8.57;;;4.13;;
73684;SDS011;61985;51.070;14.064;2023-09-30T18:59:59;14.07;;;5.18;;
73684;SDS011;61985;51.070;14.064;2023-09-30T19:02:24;13.68;;;5.60;;
73684;SDS011;61985;51.070;14.064;2023-09-30T19:04:50;11.80;;;5.20;;
73684;SDS011;61985;51.070;14.064;2023-09-30T19:07:16;9.32;;;4.90;;
73684;SDS011;61985;51.070;14.064;2023-09-30T19:09:41;12.73;;;5.25;;
73684;SDS011;61985;51.070;14.064;2023-09-30T19:12:06;23.27;;;6.35;;
73684;SDS011;61985;51.070;14.064;2023-09-30T19:14:32;14.85;;;5.57;;
73684;SDS011;61985;51.070;14.064;2023-09-30T19:16:59;15.07;;;6.80;;
73684;SDS011;61985;51.070;14.064;2023-09-30T19:19:24;16.63;;;7.65;;
73684;SDS011;61985;51.070;14.064;2023-09-30T19:21:50;18.27;;;7.78;;
73684;SDS011;61985;51.070;14.064;2023-09-30T19:24:19;16.85;;;7.20;;
73684;SDS011;61985;51.070;14.064;2023-09-30T19:26:44;17.05;;;6.90;;
73684;SDS011;61985;51.070;14.064;2023-09-30T19:29:10;21.48;;;7.88;;
73684;SDS011;61985;51.070;14.064;2023-09-30T19:31:35;18.75;;;8.32;;
73684;SDS011;61985;51.070;14.064;2023-09-30T19:34:00;19.00;;;8.68;;
73684;SDS011;61985;51.070;14.064;2023-09-30T19:36:26;20.13;;;8.82;;
73684;SDS011;61985;51.070;14.064;2023-09-30T19:38:53;19.40;;;7.78;;
73684;SDS011;61985;51.070;14.064;2023-09-30T19:41:18;19.35;;;9.20;;
73684;SDS011;61985;51.070;14.064;2023-09-30T19:43:45;24.40;;;9.45;;
73684;SDS011;61985;51.070;14.064;2023-09-30T19:46:11;20.13;;;9.15;;
73684;SDS011;61985;51.070;14.064;2023-09-30T19:48:40;17.25;;;8.27;;
73684;SDS011;61985;51.070;14.064;2023-09-30T19:51:06;13.95;;;7.00;;
73684;SDS011;61985;51.070;14.064;2023-09-30T19:53:34;18.95;;;8.15;;
73684;SDS011;61985;51.070;14.064;2023-09-30T19:56:03;14.68;;;6.93;;
73684;SDS011;61985;51.070;14.064;2023-09-30T19:58:35;15.27;;;6.93;;
73684;SDS011;61985;51.070;14.064;2023-09-30T20:01:07;18.83;;;7.82;;
73684;SDS011;61985;51.070;14.064;2023-09-30T20:03:34;15.18;;;6.38;;
73684;SDS011;61985;51.070;14.064;2023-09-30T20:06:01;13.05;;;6.53;;
73684;SDS011;61985;51.070;14.064;2023-09-30T20:08:27;12.60;;;6.63;;
73684;SDS011;61985;51.070;14.064;2023-09-30T20:10:55;10.65;;;5.22;;
73684;SDS011;61985;51.070;14.064;2023-09-30T20:13:20;13.25;;;5.82;;
73684;SDS011;61985;51.070;14.064;2023-09-30T20:15:46;13.40;;;6.00;;
73684;SDS011;61985;51.070;14.064;2023-09-30T20:18:11;13.57;;;6.10;;
73684;SDS011;61985;51.070;14.064;2023-09-30T20:20:37;12.80;;;5.30;;
73684;SDS011;61985;51.070;14.064;2023-09-30T20:23:02;12.23;;;5.50;;
73684;SDS011;61985;51.070;14.064;2023-09-30T20:25:28;14.93;;;6.05;;
73684;SDS011;61985;51.070;14.064;2023-09-30T20:27:54;14.20;;;5.45;;
73684;SDS011;61985;51.070;14.064;2023-09-30T20:30:20;13.93;;;5.18;;
73684;SDS011;61985;51.070;14.064;2023-09-30T20:32:46;11.73;;;5.32;;
73684;SDS011;61985;51.070;14.064;2023-09-30T20:35:11;16.33;;;6.43;;
73684;SDS011;61985;51.070;14.064;2023-09-30T20:37:37;15.73;;;6.68;;
73684;SDS011;61985;51.070;14.064;2023-09-30T20:40:03;21.63;;;6.00;;
73684;SDS011;61985;51.070;14.064;2023-09-30T20:42:35;14.95;;;6.10;;
73684;SDS011;61985;51.070;14.064;2023-09-30T20:45:01;11.32;;;5.45;;
73684;SDS011;61985;51.070;14.064;2023-09-30T20:47:26;9.15;;;4.55;;
73684;SDS011;61985;51.070;14.064;2023-09-30T20:49:52;11.55;;;4.72;;
73684;SDS011;61985;51.070;14.064;2023-09-30T20:52:17;11.52;;;4.55;;